Hovedside
METAR-TAF:

METAR-TAF

Lufthavner :

Lycksele lufthavn

Lycksele, Sverige

breddegrad: 64-32-51N, lengdegrad: 018-43-03E, høyde over havet: 211 m

Gjeldene værobservasjon

Denne rapporten ble laget for 15 minutter siden, klokken 17:20 UTC
Vind 4 kt fra Sørøst
Temperatur 2°C
Luftfuktighet 100%
Trykk 1005 hPa
Sikt: 6000 m

METAR: ESNL 181720Z AUTO 13004KT 6000 VV002 02/02 Q1005

Tid: 19:35 (17:35 UTC)


TAF: fraværende

Værobservasjoner og værvarsel for over 4000 flyplasser (METAR- og TAF-rapporter).

Tilgjengelige stasjoner er representert av de røde og gule prikkene på kartet.

Hold musepekeren over prikken for å se navnet på stasjonen.

Klikk så for å se værobservasjoner og -varsler.

For å forandre kartet kan du klikke på den grønne knappen med svart kryss for å zoome inn, på den grønne knappen med strek for å zoome ut, eller på de grønne pilene for å se tilstøtende kart.


METAR-TAF: